Terminal Aerodrome Forecast
Issued by NWS

Home | Current Version | Previous Version | Text Only | Print | Product List | Glossary On
Versions: 1 2 3 4 5 6 7 8 9 10 11 12 13 14
000
FTAK31 PAJN 051122
TAFAJN
TAF
PAJN 051122Z 0512/0612 VRB03KT P6SM -RA SCT040 BKN060 OVC080
     FM051600 11010KT P6SM -RA BKN040 OVC060
     FM052100 11008KT P6SM SCT035 OVC050
     FM060800 08005KT P6SM VCSH BKN040 OVC060=

USA.gov is the U.S. government's official web portal to all federal, state and local government web resources and services.